createdAt,value
2022-12-09T10:02:35.365Z,4.23
2022-12-09T10:05:23.259Z,18.30
2022-12-09T10:08:27.230Z,10.03
2022-12-09T10:11:14.037Z,5.53
2022-12-09T10:13:52.671Z,8.23
2022-12-09T10:19:30.050Z,8.93
2022-12-09T10:35:15.902Z,9.77
2022-12-09T10:41:23.128Z,14.47
2022-12-09T10:47:18.626Z,12.23
2022-12-09T10:50:06.954Z,7.17
2022-12-09T10:52:46.758Z,5.70
2022-12-09T10:55:28.012Z,4.93
2022-12-09T10:58:13.133Z,7.43
2022-12-09T11:00:47.921Z,8.30
2022-12-09T11:03:29.746Z,7.13
2022-12-09T11:06:17.404Z,4.53
2022-12-09T11:09:12.045Z,13.37
2022-12-09T11:12:05.022Z,1.67
2022-12-09T11:14:59.849Z,2.40
2022-12-09T11:18:01.683Z,4.50
2022-12-09T11:20:32.721Z,4.83
2022-12-09T11:23:17.128Z,2.23
2022-12-09T11:26:11.662Z,2.70
2022-12-09T11:29:04.741Z,3.47
2022-12-09T11:34:39.008Z,1.70
2022-12-09T11:37:25.469Z,2.37
2022-12-09T11:39:59.176Z,2.83
2022-12-09T11:42:36.966Z,7.83
2022-12-09T11:45:14.277Z,5.53
2022-12-09T11:48:25.686Z,3.80
2022-12-09T11:50:55.702Z,3.60
2022-12-09T11:53:39.857Z,5.03
2022-12-09T11:56:15.658Z,4.40
2022-12-09T11:59:02.593Z,5.37
2022-12-09T12:04:53.197Z,2.90
2022-12-09T12:07:30.125Z,3.40
2022-12-09T12:13:04.396Z,7.37
2022-12-09T12:15:39.469Z,4.10
2022-12-09T12:18:14.008Z,10.83
2022-12-09T12:20:52.062Z,3.67
2022-12-09T12:23:38.014Z,4.63
2022-12-09T12:26:10.260Z,2.87
2022-12-09T12:29:05.487Z,4.40
2022-12-09T12:31:51.735Z,5.40
2022-12-09T12:34:26.836Z,3.63
2022-12-09T12:37:02.180Z,4.33
2022-12-09T12:39:39.130Z,3.83
2022-12-09T12:42:13.948Z,4.90
2022-12-09T12:45:05.380Z,3.17
2022-12-09T12:47:40.875Z,6.27
2022-12-09T12:50:14.338Z,9.10
2022-12-09T12:52:56.088Z,15.70
2022-12-09T12:55:34.797Z,9.97
2022-12-09T12:58:10.215Z,8.23
2022-12-09T13:00:45.540Z,12.60
2022-12-09T13:03:21.860Z,5.03
2022-12-09T13:05:54.544Z,6.23
2022-12-09T13:08:29.361Z,7.47
2022-12-09T13:11:01.806Z,21.07
2022-12-09T13:13:35.002Z,7.17
2022-12-09T13:16:09.864Z,5.77
2022-12-09T13:18:43.219Z,3.20
2022-12-09T13:21:13.345Z,5.50
2022-12-09T13:23:49.974Z,7.97
2022-12-09T13:26:26.600Z,6.17
2022-12-09T13:29:01.291Z,6.70
2022-12-09T13:31:32.319Z,16.07
2022-12-09T13:34:09.503Z,5.10
2022-12-09T13:36:41.190Z,11.57
2022-12-09T13:39:16.103Z,4.43
2022-12-09T13:42:05.147Z,4.97
2022-12-09T13:44:37.478Z,3.20
2022-12-09T13:47:38.204Z,4.50
2022-12-09T13:50:10.793Z,6.10
2022-12-09T13:52:49.906Z,3.70
2022-12-09T13:55:36.904Z,3.60
2022-12-09T13:58:25.911Z,15.20
2022-12-09T14:01:07.988Z,14.73
2022-12-09T14:03:40.411Z,12.07
2022-12-09T14:06:23.807Z,6.43
2022-12-09T14:08:57.385Z,9.93
2022-12-09T14:11:54.238Z,14.37
2022-12-09T14:14:59.906Z,5.27
2022-12-09T14:18:02.312Z,4.80
2022-12-09T14:20:41.223Z,14.00
2022-12-09T14:23:17.405Z,4.43
2022-12-09T14:26:04.342Z,10.73
2022-12-09T14:29:06.083Z,6.10
2022-12-09T14:31:59.450Z,6.27
2022-12-09T14:34:39.541Z,5.50
2022-12-09T14:37:22.293Z,9.60
2022-12-09T14:39:59.869Z,5.93
2022-12-09T14:42:38.278Z,5.70
2022-12-09T14:45:21.013Z,7.70
2022-12-09T14:47:52.421Z,4.10
2022-12-09T14:50:28.958Z,9.13
2022-12-09T14:53:00.693Z,4.80
2022-12-09T14:55:32.558Z,7.87
2022-12-09T14:58:07.341Z,13.80
2022-12-09T15:00:40.317Z,14.20
2022-12-09T15:03:45.258Z,5.57
2022-12-09T15:06:19.091Z,12.57
2022-12-09T15:08:55.578Z,5.70
2022-12-09T15:11:28.079Z,18.10
2022-12-09T15:14:19.084Z,7.03
2022-12-09T15:16:50.657Z,7.50
2022-12-09T15:19:51.063Z,9.97
2022-12-09T15:22:21.201Z,12.57
2022-12-09T15:24:51.104Z,13.03
2022-12-09T15:27:22.306Z,9.27
2022-12-09T15:29:54.235Z,6.60
2022-12-09T15:38:23.215Z,7.03
2022-12-09T15:41:12.103Z,12.87
2022-12-09T15:43:43.524Z,7.87
2022-12-09T15:46:21.994Z,11.20
2022-12-09T15:48:52.941Z,10.33
2022-12-09T15:51:27.982Z,9.93
2022-12-09T15:54:05.212Z,11.93
2022-12-09T15:56:43.304Z,7.20
2022-12-09T15:59:22.485Z,8.17
2022-12-09T16:01:59.508Z,5.37
2022-12-09T16:04:32.162Z,7.83
2022-12-09T16:07:09.491Z,6.70
2022-12-09T16:09:46.793Z,6.37
2022-12-09T16:12:32.944Z,4.87
2022-12-09T16:15:02.791Z,16.03
2022-12-09T16:17:46.238Z,6.93
2022-12-09T16:20:35.980Z,9.93
2022-12-09T16:23:07.504Z,9.63
2022-12-09T16:25:44.344Z,10.10
2022-12-09T16:28:29.395Z,6.80
2022-12-09T16:31:05.498Z,7.90
2022-12-09T16:33:40.346Z,6.43
2022-12-09T16:36:17.983Z,8.20
2022-12-09T16:39:22.583Z,7.80
2022-12-09T16:42:03.905Z,23.53
2022-12-09T16:44:35.625Z,5.87
2022-12-09T16:47:15.084Z,8.80
2022-12-09T16:49:48.235Z,11.43
2022-12-09T16:52:22.360Z,7.37
2022-12-09T16:54:52.153Z,10.83
2022-12-09T16:57:30.691Z,11.57
2022-12-09T16:59:59.739Z,9.50
2022-12-09T17:05:28.897Z,9.73
2022-12-09T17:07:58.232Z,9.83
2022-12-09T17:10:31.450Z,7.30
2022-12-09T17:13:01.690Z,11.80
2022-12-09T17:15:33.423Z,8.40
2022-12-09T17:18:03.902Z,12.13
2022-12-09T17:20:40.161Z,3.07
2022-12-09T17:23:11.139Z,20.83
2022-12-09T17:25:40.381Z,14.40
2022-12-09T17:28:11.180Z,10.20
2022-12-09T17:30:42.199Z,10.77
2022-12-09T17:33:17.745Z,25.73
2022-12-09T17:35:49.603Z,14.97
2022-12-09T17:38:19.280Z,18.80
2022-12-09T17:41:08.286Z,22.53
2022-12-09T17:43:38.360Z,5.73
2022-12-09T17:46:15.891Z,9.10
2022-12-09T17:48:45.832Z,15.30
2022-12-09T17:51:20.531Z,25.73
2022-12-09T17:53:50.377Z,9.93
2022-12-09T17:56:23.207Z,10.57
2022-12-09T17:59:01.350Z,8.63
2022-12-09T18:01:34.707Z,8.60
2022-12-09T18:04:09.012Z,16.13
2022-12-09T18:06:44.364Z,11.17
2022-12-09T18:09:15.511Z,11.60
2022-12-09T18:11:45.968Z,14.40
2022-12-09T18:14:16.360Z,7.77
2022-12-09T18:16:49.424Z,8.57
2022-12-09T18:19:26.167Z,18.33
2022-12-09T18:21:58.585Z,20.00
2022-12-09T18:24:31.124Z,10.70
2022-12-09T18:27:00.827Z,12.30
2022-12-09T18:29:32.267Z,10.17
2022-12-09T18:32:01.621Z,7.43
2022-12-09T18:34:33.376Z,14.20
2022-12-09T18:37:05.492Z,8.83
2022-12-09T18:39:35.688Z,13.03
2022-12-09T18:42:15.295Z,13.10
2022-12-09T18:44:50.921Z,17.60
2022-12-09T18:47:20.881Z,20.13
2022-12-09T18:49:51.735Z,15.97
2022-12-09T18:52:22.824Z,21.70
2022-12-09T18:54:54.782Z,22.03
2022-12-09T18:57:30.383Z,33.00
2022-12-09T19:00:00.246Z,15.67
2022-12-09T19:02:32.509Z,29.87
2022-12-09T19:05:04.994Z,42.27
2022-12-09T19:07:38.829Z,36.47
2022-12-09T19:10:11.057Z,36.73
2022-12-09T19:12:56.548Z,29.93
2022-12-09T19:15:32.702Z,40.87
2022-12-09T19:18:04.704Z,35.47
2022-12-09T19:20:46.545Z,18.07
2022-12-09T19:23:34.859Z,29.87
2022-12-09T19:26:05.860Z,24.43
2022-12-09T19:28:39.345Z,22.43
2022-12-09T19:31:31.301Z,34.17
2022-12-09T19:34:11.028Z,36.00
2022-12-09T19:36:45.408Z,21.50
2022-12-09T19:39:17.028Z,43.27
2022-12-09T19:41:56.453Z,19.80
2022-12-09T19:44:52.447Z,25.47
2022-12-09T19:47:19.100Z,29.57
2022-12-09T19:49:52.122Z,24.20
2022-12-09T19:52:25.457Z,36.13
2022-12-09T19:55:09.937Z,26.20
2022-12-09T20:00:24.111Z,26.73
2022-12-09T20:02:55.481Z,22.43
2022-12-09T20:05:42.327Z,35.37
2022-12-09T20:08:18.486Z,15.00
2022-12-09T20:13:51.352Z,23.70
2022-12-09T20:16:28.820Z,24.63
2022-12-09T20:19:02.806Z,23.67
2022-12-09T20:21:34.043Z,24.40
2022-12-09T20:24:08.907Z,20.30
2022-12-09T20:26:46.156Z,15.67
2022-12-09T20:29:17.730Z,26.27
2022-12-09T20:31:49.840Z,27.20
2022-12-09T20:34:27.001Z,16.60
2022-12-09T20:37:00.439Z,25.63
2022-12-09T20:39:30.724Z,21.07
2022-12-09T20:42:07.889Z,24.00
2022-12-09T20:44:37.261Z,17.43
2022-12-09T20:47:12.838Z,12.47
2022-12-09T20:49:44.762Z,19.60
2022-12-09T20:52:19.505Z,17.67
2022-12-09T20:54:51.032Z,16.37
2022-12-09T20:57:42.451Z,20.30
2022-12-09T21:00:26.482Z,21.00
2022-12-09T21:03:19.037Z,17.90
2022-12-09T21:05:48.689Z,23.27
2022-12-09T21:08:35.247Z,24.87
2022-12-09T21:11:06.372Z,15.90
2022-12-09T21:14:01.667Z,18.90
2022-12-09T21:16:44.892Z,19.50
2022-12-09T21:19:17.452Z,18.73
2022-12-09T21:21:58.027Z,23.20
2022-12-09T21:24:27.370Z,27.13
2022-12-09T21:27:13.310Z,12.87
2022-12-09T21:29:45.953Z,24.03
2022-12-09T21:32:23.292Z,10.23
2022-12-09T21:34:59.862Z,9.83
2022-12-09T21:37:30.265Z,35.03
2022-12-09T21:40:07.876Z,12.30
2022-12-09T21:42:42.756Z,8.30
2022-12-09T21:45:32.806Z,19.43
2022-12-09T21:48:21.147Z,31.33
2022-12-09T21:50:58.927Z,22.90
2022-12-09T21:53:39.019Z,17.10
2022-12-09T22:34:47.217Z,11.93
2022-12-09T23:27:18.232Z,25.63
2022-12-09T23:35:47.349Z,16.53
